createdAt,value
2018-01-01T00:01:22.240Z,38.67
2018-01-01T00:03:50.206Z,37.85
2018-01-01T00:06:18.172Z,40.63
2018-01-01T00:08:46.149Z,38.05
2018-01-01T00:11:14.141Z,39.65
2018-01-01T00:13:42.129Z,40.50
2018-01-01T00:16:10.859Z,39.85
2018-01-01T00:18:38.887Z,37.28
2018-01-01T00:21:07.618Z,39.90
2018-01-01T00:23:36.346Z,39.70
2018-01-01T00:26:04.333Z,36.22
2018-01-01T00:28:33.062Z,38.08
2018-01-01T00:31:01.066Z,36.80
2018-01-01T00:33:29.097Z,35.50
2018-01-01T00:35:57.106Z,36.45
2018-01-01T00:38:25.090Z,36.30
2018-01-01T00:40:53.837Z,36.78
2018-01-01T00:43:21.826Z,34.00
2018-01-01T00:45:49.822Z,36.38
2018-01-01T00:48:17.829Z,34.17
2018-01-01T00:50:45.817Z,33.65
2018-01-01T00:53:13.829Z,39.78
2018-01-01T00:55:42.566Z,37.03
2018-01-01T00:58:10.630Z,37.63
2018-01-01T01:00:38.605Z,37.83
2018-01-01T01:03:06.592Z,37.22
2018-01-01T01:05:34.574Z,38.95
2018-01-01T01:08:02.550Z,38.28
2018-01-01T01:10:31.314Z,38.83
2018-01-01T01:12:59.290Z,35.85
2018-01-01T01:15:27.269Z,38.92
2018-01-01T01:17:55.246Z,40.40
2018-01-01T01:20:24.010Z,37.13
2018-01-01T01:22:51.994Z,38.28
2018-01-01T01:25:19.975Z,40.30
2018-01-01T01:27:48.745Z,38.40
2018-01-01T01:30:16.722Z,38.15
2018-01-01T01:32:45.468Z,39.33
2018-01-01T01:35:13.473Z,39.40
2018-01-01T01:37:41.439Z,39.45
2018-01-01T01:40:09.444Z,37.60
2018-01-01T01:42:37.442Z,40.38
2018-01-01T01:45:05.446Z,36.25
2018-01-01T01:47:33.458Z,38.42
2018-01-01T01:50:01.453Z,39.53
2018-01-01T01:52:29.421Z,38.88
2018-01-01T01:54:57.401Z,41.45
2018-01-01T01:57:25.363Z,43.85
2018-01-01T01:59:53.362Z,40.17
2018-01-01T02:02:21.374Z,39.78
2018-01-01T02:04:49.377Z,39.45
2018-01-01T02:07:17.350Z,41.65
2018-01-01T02:09:45.323Z,38.20
2018-01-01T02:12:13.330Z,42.55
2018-01-01T02:14:42.089Z,39.03
2018-01-01T02:17:10.081Z,38.20
2018-01-01T02:19:38.818Z,41.35
2018-01-01T02:22:06.821Z,42.20
2018-01-01T02:24:34.810Z,39.28
2018-01-01T02:27:03.558Z,40.47
2018-01-01T02:29:31.573Z,40.80
2018-01-01T02:31:59.670Z,42.40
2018-01-01T02:34:27.659Z,39.90
2018-01-01T02:36:55.659Z,39.50
2018-01-01T02:39:23.626Z,39.90
2018-01-01T02:41:51.611Z,40.65
2018-01-01T02:44:20.359Z,40.42
2018-01-01T02:46:48.330Z,41.83
2018-01-01T02:49:16.308Z,38.92
2018-01-01T02:51:44.307Z,41.20
2018-01-01T02:54:13.050Z,41.65
2018-01-01T02:56:41.017Z,44.80
2018-01-01T02:59:09.039Z,42.95
2018-01-01T03:01:37.793Z,41.37
2018-01-01T03:04:05.835Z,46.90
2018-01-01T03:06:33.808Z,44.75
2018-01-01T03:09:01.811Z,44.25
2018-01-01T03:11:29.778Z,45.65
2018-01-01T03:13:58.042Z,44.22
2018-01-01T03:16:26.114Z,44.47
2018-01-01T03:18:54.109Z,44.65
2018-01-01T03:21:22.866Z,44.55
2018-01-01T03:23:50.851Z,45.92
2018-01-01T03:26:18.810Z,48.10
2018-01-01T03:28:46.778Z,44.90
2018-01-01T03:31:14.769Z,49.33
2018-01-01T03:33:43.509Z,51.72
2018-01-01T03:36:11.512Z,49.55
2018-01-01T03:38:39.495Z,51.05
2018-01-01T03:41:07.470Z,49.50
2018-01-01T03:43:36.231Z,49.38
2018-01-01T03:46:04.223Z,52.90
2018-01-01T03:48:33.013Z,48.53
2018-01-01T03:51:01.790Z,48.17
2018-01-01T03:53:29.759Z,51.28
2018-01-01T03:55:58.522Z,48.08
2018-01-01T03:58:26.514Z,52.47
2018-01-01T04:00:55.278Z,52.28
2018-01-01T04:03:23.301Z,52.08
2018-01-01T04:05:51.316Z,49.22
2018-01-01T04:08:19.303Z,50.50
2018-01-01T04:10:47.289Z,53.70
2018-01-01T04:13:16.031Z,50.97
2018-01-01T04:15:44.321Z,51.83
2018-01-01T04:18:16.334Z,50.50
2018-01-01T04:20:44.334Z,51.17
2018-01-01T04:23:12.310Z,48.70
2018-01-01T04:25:40.308Z,48.95
2018-01-01T04:28:08.278Z,51.95
2018-01-01T04:30:36.257Z,49.28
2018-01-01T04:33:05.014Z,46.28
2018-01-01T04:35:33.006Z,50.50
2018-01-01T04:38:01.011Z,51.67
2018-01-01T04:40:28.979Z,49.60
2018-01-01T04:42:56.962Z,49.47
2018-01-01T04:45:24.962Z,49.45
2018-01-01T04:47:52.949Z,49.38
2018-01-01T04:50:20.981Z,48.90
2018-01-01T04:52:48.955Z,48.03
2018-01-01T04:55:16.954Z,52.00
2018-01-01T04:57:44.925Z,53.55
2018-01-01T05:00:12.903Z,51.35
2018-01-01T05:02:41.694Z,52.72
2018-01-01T05:05:10.433Z,53.87
2018-01-01T05:07:38.402Z,54.28
2018-01-01T05:10:06.389Z,55.70
2018-01-01T05:12:34.357Z,55.53
2018-01-01T05:15:02.318Z,58.83
2018-01-01T05:17:30.298Z,57.17
2018-01-01T05:19:58.314Z,59.03
2018-01-01T05:22:26.311Z,59.65
2018-01-01T05:24:54.295Z,60.08
2018-01-01T05:27:22.289Z,61.53
2018-01-01T05:29:50.270Z,60.85
2018-01-01T05:32:19.009Z,64.40
2018-01-01T05:34:46.998Z,62.08
2018-01-01T05:37:15.002Z,67.35
2018-01-01T05:39:43.757Z,64.00
2018-01-01T05:42:11.797Z,67.35
2018-01-01T05:44:39.785Z,65.12
2018-01-01T05:47:07.777Z,66.60
2018-01-01T05:49:35.734Z,65.90
2018-01-01T05:52:03.718Z,61.00
2018-01-01T05:54:31.711Z,62.45
2018-01-01T05:57:00.470Z,66.72
2018-01-01T05:59:28.442Z,62.90
2018-01-01T06:01:56.436Z,69.05
2018-01-01T06:04:25.199Z,63.72
2018-01-01T06:06:53.165Z,64.10
2018-01-01T06:09:21.142Z,61.53
2018-01-01T06:11:49.143Z,61.25
2018-01-01T06:14:17.119Z,62.15
2018-01-01T06:16:45.105Z,62.00
2018-01-01T06:19:13.095Z,63.08
2018-01-01T06:21:41.102Z,61.15
2018-01-01T06:24:09.867Z,61.83
2018-01-01T06:26:37.879Z,63.65
2018-01-01T06:29:05.877Z,62.83
2018-01-01T06:31:33.872Z,61.33
2018-01-01T06:34:01.833Z,60.65
2018-01-01T06:36:29.834Z,62.80
2018-01-01T06:38:58.587Z,58.70
2018-01-01T06:41:26.589Z,64.28
2018-01-01T06:43:55.344Z,60.12
2018-01-01T06:46:23.340Z,61.03
2018-01-01T06:48:52.080Z,58.90
2018-01-01T06:51:20.124Z,56.72
2018-01-01T06:53:48.096Z,58.85
2018-01-01T06:56:16.114Z,56.25
2018-01-01T06:58:44.145Z,57.88
2018-01-01T07:01:12.127Z,60.20
2018-01-01T07:03:40.082Z,58.47
2018-01-01T07:06:08.070Z,55.75
2018-01-01T07:08:36.145Z,59.28
2018-01-01T07:11:04.142Z,55.72
2018-01-01T07:13:32.124Z,58.45
2018-01-01T07:16:00.854Z,57.03
2018-01-01T07:18:28.822Z,56.40
2018-01-01T07:20:57.106Z,53.22
2018-01-01T07:23:25.093Z,57.10
2018-01-01T07:25:53.081Z,56.05
2018-01-01T07:28:21.060Z,55.55
2018-01-01T07:30:49.880Z,55.63
2018-01-01T07:33:17.882Z,53.58
2018-01-01T07:35:45.859Z,55.70
2018-01-01T07:38:13.823Z,58.20
2018-01-01T07:40:41.810Z,55.97
2018-01-01T07:43:09.798Z,56.03
2018-01-01T07:45:38.562Z,58.22
2018-01-01T07:48:06.526Z,62.42
2018-01-01T07:50:34.493Z,70.75
2018-01-01T07:53:02.471Z,64.65
2018-01-01T07:55:30.456Z,65.28
2018-01-01T07:57:59.216Z,63.50
2018-01-01T08:00:27.192Z,62.40
2018-01-01T08:02:55.191Z,57.28
2018-01-01T08:05:23.941Z,80.28
2018-01-01T08:07:51.915Z,67.47
2018-01-01T08:10:19.892Z,73.43
2018-01-01T08:12:47.881Z,75.32
2018-01-01T08:15:16.614Z,95.32
2018-01-01T08:17:44.590Z,84.65
2018-01-01T08:20:12.581Z,75.15
2018-01-01T08:22:40.574Z,77.22
2018-01-01T08:25:09.299Z,75.43
2018-01-01T08:27:37.273Z,118.95
2018-01-01T08:30:05.268Z,95.45
2018-01-01T08:32:33.238Z,92.60
2018-01-01T08:35:01.246Z,89.93
2018-01-01T08:37:29.998Z,78.25
2018-01-01T08:39:57.981Z,69.60
2018-01-01T08:42:25.985Z,82.22
2018-01-01T08:44:53.959Z,65.32
2018-01-01T08:47:21.954Z,62.55
2018-01-01T08:49:49.921Z,57.08
2018-01-01T08:52:17.886Z,52.62
2018-01-01T08:54:45.838Z,52.90
2018-01-01T08:57:13.830Z,53.15
2018-01-01T08:59:41.807Z,51.60
2018-01-01T09:02:09.810Z,50.30
2018-01-01T09:04:38.554Z,47.80
2018-01-01T09:07:07.302Z,51.92
2018-01-01T09:09:35.306Z,51.78
2018-01-01T09:12:03.310Z,51.00
2018-01-01T09:14:31.634Z,49.10
2018-01-01T09:16:59.657Z,49.33
2018-01-01T09:19:27.625Z,54.92
2018-01-01T09:21:55.633Z,51.10
2018-01-01T09:24:23.649Z,46.53
2018-01-01T09:26:51.618Z,66.50
2018-01-01T09:29:19.614Z,53.65
2018-01-01T09:31:48.363Z,48.55
2018-01-01T09:34:16.338Z,45.47
2018-01-01T09:36:44.360Z,45.53
2018-01-01T09:39:12.419Z,53.95
2018-01-01T09:41:41.187Z,60.63
2018-01-01T09:44:09.171Z,52.10
2018-01-01T09:46:37.930Z,48.17
2018-01-01T09:49:05.946Z,47.15
2018-01-01T09:51:33.927Z,50.83
2018-01-01T09:54:01.919Z,49.35
2018-01-01T09:56:29.902Z,48.58
2018-01-01T09:58:57.907Z,53.00
2018-01-01T10:01:26.697Z,46.60
2018-01-01T10:03:55.470Z,46.83
2018-01-01T10:06:23.458Z,45.45
2018-01-01T10:08:52.210Z,45.03
2018-01-01T10:11:20.193Z,45.92
2018-01-01T10:13:48.207Z,50.12
2018-01-01T10:16:16.209Z,54.92
2018-01-01T10:18:44.198Z,51.05
2018-01-01T10:21:12.213Z,52.08
2018-01-01T10:23:40.193Z,62.55
2018-01-01T10:26:08.223Z,53.45
2018-01-01T10:28:36.962Z,53.50
2018-01-01T10:31:04.945Z,57.40
2018-01-01T10:33:32.930Z,56.67
2018-01-01T10:36:00.914Z,53.97
2018-01-01T10:38:29.702Z,51.10
2018-01-01T10:40:58.451Z,55.15
2018-01-01T10:43:26.450Z,54.95
2018-01-01T10:45:54.431Z,51.08
2018-01-01T10:48:23.163Z,44.92
2018-01-01T10:50:51.168Z,47.13
2018-01-01T10:53:19.157Z,41.58
2018-01-01T10:55:47.910Z,41.42
2018-01-01T10:58:15.913Z,39.20
2018-01-01T11:00:44.663Z,37.95
2018-01-01T11:03:12.698Z,40.33
2018-01-01T11:05:40.694Z,45.75
2018-01-01T11:08:08.686Z,44.08
2018-01-01T11:10:36.678Z,43.10
2018-01-01T11:13:05.411Z,49.88
2018-01-01T11:15:33.776Z,48.50
2018-01-01T11:18:01.746Z,42.70
2018-01-01T11:20:29.718Z,40.40
2018-01-01T11:22:57.714Z,39.08
2018-01-01T11:25:25.698Z,39.28
2018-01-01T11:27:53.711Z,41.03
2018-01-01T11:30:21.702Z,41.20
2018-01-01T11:32:49.670Z,38.70
2018-01-01T11:35:17.670Z,36.88
2018-01-01T11:37:45.651Z,34.28
2018-01-01T11:40:13.661Z,32.95
2018-01-01T11:42:41.662Z,32.28
2018-01-01T11:45:09.634Z,31.55
2018-01-01T11:47:37.638Z,32.70
2018-01-01T11:50:06.429Z,30.55
2018-01-01T11:52:35.191Z,29.02
2018-01-01T11:55:03.174Z,27.00
2018-01-01T11:57:31.922Z,32.25
2018-01-01T11:59:59.914Z,27.50
2018-01-01T12:02:27.944Z,36.60
2018-01-01T12:04:55.973Z,30.83
2018-01-01T12:07:24.712Z,34.58
2018-01-01T12:09:52.690Z,29.37
2018-01-01T12:12:20.674Z,32.30
2018-01-01T12:14:48.677Z,29.87
2018-01-01T12:17:17.391Z,23.75
2018-01-01T12:19:45.377Z,21.80
2018-01-01T12:22:13.370Z,22.65
2018-01-01T12:24:41.353Z,21.52
2018-01-01T12:27:09.366Z,21.30
2018-01-01T12:29:37.339Z,24.10
2018-01-01T12:32:05.303Z,25.37
2018-01-01T12:34:33.297Z,31.17
2018-01-01T12:37:01.298Z,25.08
2018-01-01T12:39:29.302Z,25.05
2018-01-01T12:41:57.274Z,46.72
2018-01-01T12:44:25.276Z,39.15
2018-01-01T12:46:53.265Z,35.58
2018-01-01T12:49:21.262Z,31.67
2018-01-01T12:51:50.000Z,23.92
2018-01-01T12:54:18.006Z,21.90
2018-01-01T12:56:46.009Z,22.25
2018-01-01T12:59:13.970Z,21.92
2018-01-01T13:01:41.947Z,20.90
2018-01-01T13:04:09.968Z,19.12
2018-01-01T13:06:37.965Z,19.20
2018-01-01T13:09:06.766Z,19.85
2018-01-01T13:11:34.746Z,21.42
2018-01-01T13:14:02.765Z,20.15
2018-01-01T13:16:30.765Z,20.95
2018-01-01T13:18:58.755Z,20.08
2018-01-01T13:21:26.759Z,19.77
2018-01-01T13:23:54.730Z,20.73
2018-01-01T13:26:22.726Z,20.75
2018-01-01T13:28:50.721Z,20.90
2018-01-01T13:31:18.712Z,19.10
2018-01-01T13:33:46.686Z,19.85
2018-01-01T13:36:14.691Z,20.98
2018-01-01T13:38:42.662Z,20.60
2018-01-01T13:41:10.630Z,21.23
2018-01-01T13:43:38.673Z,18.95
2018-01-01T13:46:06.651Z,20.12
2018-01-01T13:48:34.617Z,19.45
2018-01-01T13:51:02.620Z,17.77
2018-01-01T13:53:31.355Z,20.65
2018-01-01T13:55:59.339Z,20.27
2018-01-01T13:58:27.328Z,19.90
2018-01-01T14:00:55.299Z,22.30
2018-01-01T14:03:23.271Z,21.37
2018-01-01T14:05:51.262Z,22.80
2018-01-01T14:08:20.065Z,23.20
2018-01-01T14:10:48.085Z,23.10
2018-01-01T14:13:16.124Z,24.30
2018-01-01T14:15:44.123Z,25.48
2018-01-01T14:18:12.121Z,25.48
2018-01-01T14:20:40.911Z,26.50
2018-01-01T14:23:09.670Z,27.55
2018-01-01T14:25:37.710Z,26.70
2018-01-01T14:28:05.678Z,26.62
2018-01-01T14:30:33.650Z,25.40
2018-01-01T14:33:01.666Z,26.65
2018-01-01T14:35:29.653Z,26.35
2018-01-01T14:37:58.420Z,27.62
2018-01-01T14:40:26.401Z,27.30
2018-01-01T14:42:55.146Z,24.70
2018-01-01T14:45:23.122Z,24.83
2018-01-01T14:47:51.078Z,26.62
2018-01-01T14:50:19.097Z,25.50
2018-01-01T14:52:47.838Z,25.67
2018-01-01T14:55:15.811Z,24.95
2018-01-01T14:57:43.818Z,24.73
2018-01-01T15:00:12.651Z,23.62
2018-01-01T15:02:40.615Z,24.77
2018-01-01T15:05:08.593Z,23.10
2018-01-01T15:07:36.584Z,23.17
2018-01-01T15:10:04.574Z,22.45
2018-01-01T15:12:32.568Z,24.08
2018-01-01T15:15:00.539Z,23.90
2018-01-01T15:17:29.911Z,23.70
2018-01-01T15:19:57.848Z,22.70
2018-01-01T15:22:25.846Z,22.37
2018-01-01T15:24:53.822Z,24.50
2018-01-01T15:27:21.809Z,24.95
2018-01-01T15:29:50.534Z,23.10
2018-01-01T15:32:18.519Z,22.90
2018-01-01T15:34:46.513Z,21.23
2018-01-01T15:37:14.520Z,20.05
2018-01-01T15:39:42.526Z,19.60
2018-01-01T15:42:10.542Z,21.60
2018-01-01T15:44:39.496Z,19.70
2018-01-01T15:47:07.497Z,20.17
2018-01-01T15:49:36.257Z,21.65
2018-01-01T15:52:04.258Z,20.77
2018-01-01T15:54:33.046Z,19.87
2018-01-01T15:57:01.771Z,20.02
2018-01-01T15:59:29.789Z,19.42
2018-01-01T16:01:58.563Z,19.60
2018-01-01T16:04:26.543Z,19.95
2018-01-01T16:06:54.638Z,20.60
2018-01-01T16:09:22.602Z,18.33
2018-01-01T16:11:51.366Z,19.65
2018-01-01T16:14:19.331Z,19.98
2018-01-01T16:16:47.343Z,18.98
2018-01-01T16:19:15.394Z,19.30
2018-01-01T16:21:44.146Z,17.73
2018-01-01T16:24:12.145Z,19.58
2018-01-01T16:26:40.889Z,18.75
2018-01-01T16:29:09.658Z,18.35
2018-01-01T16:31:37.683Z,22.23
2018-01-01T16:34:06.470Z,19.65
2018-01-01T16:36:34.444Z,20.02
2018-01-01T16:39:03.300Z,19.62
2018-01-01T16:41:31.327Z,18.90
2018-01-01T16:43:59.329Z,18.67
2018-01-01T16:46:27.317Z,19.20
2018-01-01T16:48:55.373Z,17.80
2018-01-01T16:51:23.345Z,19.42
2018-01-01T16:53:51.326Z,17.85
2018-01-01T16:56:19.319Z,16.95
2018-01-01T16:58:48.114Z,19.85
2018-01-01T17:01:16.886Z,18.98
2018-01-01T17:03:44.886Z,18.17
2018-01-01T17:06:12.890Z,18.27
2018-01-01T17:08:40.927Z,19.92
2018-01-01T17:11:08.927Z,19.08
2018-01-01T17:13:36.907Z,19.92
2018-01-01T17:16:05.418Z,17.87
2018-01-01T17:18:33.388Z,18.80
2018-01-01T17:21:02.174Z,17.37
2018-01-01T17:23:30.961Z,18.50
2018-01-01T17:25:58.971Z,19.62
2018-01-01T17:28:27.021Z,20.05
2018-01-01T17:30:55.092Z,19.27
2018-01-01T17:33:23.878Z,19.20
2018-01-01T17:35:52.679Z,17.37
2018-01-01T17:38:20.726Z,18.20
2018-01-01T17:40:49.577Z,18.20
2018-01-01T17:43:17.631Z,18.50
2018-01-01T17:45:45.696Z,19.37
2018-01-01T17:48:13.751Z,17.00
2018-01-01T17:50:41.823Z,18.42
2018-01-01T17:53:09.882Z,17.17
2018-01-01T17:55:38.684Z,17.85
2018-01-01T17:58:06.748Z,17.23
2018-01-01T18:00:34.803Z,16.55
2018-01-01T18:03:03.610Z,17.90
2018-01-01T18:05:31.583Z,16.62
2018-01-01T18:07:59.621Z,15.60
2018-01-01T18:10:28.364Z,16.10
2018-01-01T18:12:56.364Z,20.98
2018-01-01T18:15:24.358Z,19.55
2018-01-01T18:17:53.095Z,19.92
2018-01-01T18:20:21.059Z,18.85
2018-01-01T18:22:49.066Z,18.90
2018-01-01T18:25:17.071Z,17.60
2018-01-01T18:27:45.084Z,20.15
2018-01-01T18:30:13.091Z,19.65
2018-01-01T18:32:41.825Z,19.17
2018-01-01T18:35:09.798Z,20.15
2018-01-01T18:37:37.782Z,23.60
2018-01-01T18:40:05.801Z,21.92
2018-01-01T18:42:33.809Z,20.73
2018-01-01T18:45:01.794Z,23.98
2018-01-01T18:47:29.813Z,24.02
2018-01-01T18:49:57.783Z,22.80
2018-01-01T18:52:25.758Z,23.27
2018-01-01T18:54:53.743Z,24.95
2018-01-01T18:57:21.716Z,26.05
2018-01-01T18:59:49.718Z,23.83
2018-01-01T19:02:17.702Z,25.45
2018-01-01T19:04:46.461Z,25.62
2018-01-01T19:07:14.504Z,25.08
2018-01-01T19:09:42.489Z,25.10
2018-01-01T19:12:10.465Z,23.83
2018-01-01T19:14:39.787Z,24.73
2018-01-01T19:17:07.885Z,25.90
2018-01-01T19:19:35.867Z,27.37
2018-01-01T19:22:03.862Z,25.62
2018-01-01T19:24:31.854Z,24.30
2018-01-01T19:26:59.869Z,23.83
2018-01-01T19:29:27.842Z,25.73
2018-01-01T19:31:55.833Z,23.55
2018-01-01T19:34:23.839Z,26.45
2018-01-01T19:36:51.871Z,24.80
2018-01-01T19:39:19.846Z,24.40
2018-01-01T19:41:47.907Z,24.52
2018-01-01T19:44:15.910Z,23.52
2018-01-01T19:46:43.895Z,26.20
2018-01-01T19:49:11.903Z,24.75
2018-01-01T19:51:39.882Z,22.13
2018-01-01T19:54:07.862Z,25.60
2018-01-01T19:56:35.894Z,24.48
2018-01-01T19:59:04.018Z,24.10
2018-01-01T20:01:32.003Z,25.00
2018-01-01T20:04:00.018Z,25.08
2018-01-01T20:06:28.045Z,24.85
2018-01-01T20:08:56.038Z,24.42
2018-01-01T20:11:24.791Z,23.85
2018-01-01T20:13:52.757Z,25.73
2018-01-01T20:16:20.753Z,27.25
2018-01-01T20:18:49.486Z,26.00
2018-01-01T20:21:17.573Z,24.85
2018-01-01T20:23:45.571Z,25.85
2018-01-01T20:26:13.566Z,25.50
2018-01-01T20:28:41.612Z,25.15
2018-01-01T20:31:09.622Z,26.60
2018-01-01T20:33:37.606Z,25.98
2018-01-01T20:36:05.614Z,26.75
2018-01-01T20:38:33.602Z,25.77
2018-01-01T20:41:02.436Z,25.37
2018-01-01T20:43:30.434Z,26.60
2018-01-01T20:45:58.431Z,27.48
2018-01-01T20:48:27.211Z,25.17
2018-01-01T20:50:55.930Z,25.37
2018-01-01T20:53:23.906Z,25.35
2018-01-01T20:55:51.904Z,26.95
2018-01-01T20:58:19.873Z,25.08
2018-01-01T21:00:47.866Z,26.23
2018-01-01T21:03:15.851Z,29.48
2018-01-01T21:05:44.586Z,31.15
2018-01-01T21:08:12.578Z,30.88
2018-01-01T21:10:40.547Z,31.52
2018-01-01T21:13:08.587Z,30.92
2018-01-01T21:15:36.630Z,33.90
2018-01-01T21:18:04.635Z,33.28
2018-01-01T21:20:32.600Z,32.45
2018-01-01T21:23:00.598Z,35.15
2018-01-01T21:25:29.421Z,35.03
2018-01-01T21:27:58.186Z,33.75
2018-01-01T21:30:26.155Z,34.05
2018-01-01T21:32:54.146Z,30.58
2018-01-01T21:35:22.890Z,32.50
2018-01-01T21:37:50.918Z,33.00
2018-01-01T21:40:18.884Z,32.35
2018-01-01T21:42:46.848Z,30.35
2018-01-01T21:45:14.822Z,31.50
2018-01-01T21:47:42.801Z,31.27
2018-01-01T21:50:10.781Z,29.02
2018-01-01T21:52:38.745Z,31.08
2018-01-01T21:55:06.719Z,30.80
2018-01-01T21:57:34.715Z,33.50
2018-01-01T22:00:02.755Z,30.62
2018-01-01T22:02:30.735Z,33.08
2018-01-01T22:04:58.738Z,33.47
2018-01-01T22:07:26.714Z,32.88
2018-01-01T22:09:55.574Z,33.90
2018-01-01T22:12:23.562Z,32.40
2018-01-01T22:14:51.535Z,31.12
2018-01-01T22:17:19.537Z,32.45
2018-01-01T22:19:47.515Z,31.45
2018-01-01T22:22:15.538Z,34.20
2018-01-01T22:24:43.598Z,42.67
2018-01-01T22:27:11.582Z,34.00
2018-01-01T22:29:39.557Z,36.35
2018-01-01T22:32:07.569Z,33.83
2018-01-01T22:34:35.562Z,32.38
2018-01-01T22:37:03.577Z,35.03
2018-01-01T22:39:32.354Z,35.95
2018-01-01T22:42:01.094Z,33.05
2018-01-01T22:44:29.078Z,34.40
2018-01-01T22:46:57.071Z,34.05
2018-01-01T22:49:25.103Z,32.60
2018-01-01T22:51:53.093Z,32.50
2018-01-01T22:54:21.077Z,32.80
2018-01-01T22:56:49.050Z,32.00
2018-01-01T22:59:17.028Z,31.15
2018-01-01T23:01:45.805Z,30.23
2018-01-01T23:04:13.830Z,31.15
2018-01-01T23:06:41.827Z,33.10
2018-01-01T23:09:09.811Z,31.00
2018-01-01T23:11:37.797Z,30.00
2018-01-01T23:14:06.530Z,31.73
2018-01-01T23:16:35.427Z,34.90
2018-01-01T23:19:03.414Z,32.20
2018-01-01T23:21:31.397Z,33.15
2018-01-01T23:23:59.382Z,32.92
2018-01-01T23:26:28.118Z,29.58
2018-01-01T23:28:56.120Z,32.55
2018-01-01T23:31:24.125Z,30.02
2018-01-01T23:33:52.101Z,31.80
2018-01-01T23:36:20.079Z,30.83
2018-01-01T23:38:48.074Z,31.15
2018-01-01T23:41:16.101Z,31.23
2018-01-01T23:43:44.078Z,30.25
2018-01-01T23:46:12.054Z,31.83
2018-01-01T23:48:40.035Z,30.73
2018-01-01T23:51:08.006Z,32.28
2018-01-01T23:53:36.048Z,29.70
2018-01-01T23:56:04.023Z,30.20
2018-01-01T23:58:32.019Z,29.80
